Latest Coastal Weather Observations for Sydney Airport

IDN60701

Issued at 1:51 pm EST Monday 27 June 2016 (issued every 10 minutes, with the page automatically refreshed every 10 minutes)

About coastal observations | Map of coastal stations | Coastal observations for NSW | Marine services | Other Formats
Station Details ID: 066037 Name: SYDNEY AIRPORT AMO Lat: -33.95 Lon: 151.17 Height: 6.0 m
Data from the previous 72 hours. | See also: Recent months at Sydney Airport
Date/Time
EST
Temp
°C
Wind Pressure Rain since
9am
mm
Weather Cloud Vis
km
Sea
Height
m
Swell
Dir  Spd
kts
Gust
kts
hPa Trend Height
m
Period
s
Dir
27/01:30pm 10.9 W 10 14 1013.0 - 0.0 Drizzle Mostly clear 10 - - - -
27/01:00pm 10.8 W 9 14 1013.3 - 0.0 - Mostly clear 10 - - - -
27/12:30pm 10.4 WNW 10 12 1013.5 - 0.0 Drizzle Mostly clear 10 - - - -
27/12:00pm 9.7 WNW 9 10 1013.9 F 0.0 Drizzle Cloudy 2 - - - -
27/11:30am 9.5 W 11 15 1014.4 - 0.0 Drizzle Mostly clear 10 - - - -
27/11:00am 10.1 W 13 16 1014.6 - 0.0 - Mostly clear 10 - - - -
27/10:30am 9.9 W 14 19 1014.7 - 0.0 - Mostly clear 10 - - - -
27/10:00am 9.7 W 15 18 1015.1 - 0.0 - Mostly clear 10 - - - -
27/09:30am 9.3 WNW 15 19 1015.3 - 0.0 - Mostly clear 10 - - - -
27/09:00am 9.3 WNW 15 20 1015.5 F 0.0 Fine Cloudy 25 - - - -
27/08:30am 9.6 WNW 16 20 1015.3 - 0.0 - Mostly clear 10 - - - -
27/08:00am 10.1 W 13 16 1015.1 - 0.0 - Mostly clear 10 - - - -
27/07:30am 9.3 WSW 12 19 1014.9 - 0.0 - Mostly clear 10 - - - -
27/07:00am 9.4 WSW 9 15 1015.1 - 0.0 - Mostly clear 10 - - - -
27/06:30am 9.8 WNW 11 16 1015.1 - 0.0 Drizzle Mostly clear 10 - - - -
27/06:00am 9.6 NW 9 11 1014.7 R 0.0 Drizzle Cloudy 20 - - - -
27/05:30am 9.6 NW 9 12 1014.6 - 0.0 - Mostly clear 10 - - - -
27/05:00am 9.6 NNW 9 12 1014.6 - 0.0 - Mostly clear 10 - - - -
27/04:30am 9.7 NW 8 10 1014.3 - 0.0 - Mostly clear 10 - - - -
27/04:00am 9.1 NW 9 10 1014.2 - 0.0 - Partly cloudy 10 - - - -
27/03:30am 9.4 N 10 14 1014.5 - 0.0 - Partly cloudy 10 - - - -
27/03:00am 9.3 WNW 6 8 1014.3 F 0.0 Fine Mostly cloudy 25 - - - -
27/02:30am 9.5 NW 7 8 1014.7 - 0.0 - Partly cloudy 10 - - - -
27/02:00am 9.7 NW 7 8 1015.0 - 0.0 - Cloudy 10 - - - -
27/01:30am 9.7 NW 6 7 1015.3 - 0.0 - Cloudy 10 - - - -
27/01:00am 10.1 NW 7 8 1015.1 - 0.0 - Cloudy 10 - - - -
27/12:30am 10.7 NNW 7 8 1015.7 - 0.0 - - 10 - - - -
27/12:00am 10.3 N 6 7 1015.7 F 0.0 Fine Mostly cloudy 25 - - - -
 
Date/Time
EST
Temp
°C
Wind Pressure Rain since
9am
mm
Weather Cloud Vis
km
Sea
Height
m
Swell
Dir  Spd
kts
Gust
kts
hPa Trend Height
m
Period
s
Dir
26/11:30pm 11.0 NW 6 7 1015.6 - 0.0 - - 10 - - - -
26/11:00pm 10.6 SW 6 7 1015.3 - 0.0 - - 10 - - - -
26/10:30pm 11.5 W 3 6 1015.5 - 0.0 - - 10 - - - -
26/10:00pm 11.6 NE 3 4 1015.7 - 0.0 - - 10 - - - -
26/09:30pm 12.4 N 4 5 1016.3 - 0.0 - - 10 - - - -
26/09:00pm 12.7 N 5 6 1016.8 F 0.0 Fine Mostly cloudy 25 - - - -
26/08:30pm 12.8 NNW 7 9 1017.4 - 0.0 - - 10 - - - -
26/08:00pm 13.2 NNW 7 9 1017.5 - 0.0 - - 10 - - - -
26/07:30pm 13.0 NNW 5 5 1016.8 - 0.0 - - 10 - - - -
26/07:00pm 13.0 NW 5 6 1017.0 - 0.0 - - 10 - - - -
26/06:30pm 12.9 WNW 4 5 1016.7 - 0.0 - - 10 - - - -
26/06:00pm 13.1 WNW 5 6 1016.9 F 0.0 Fine Mostly cloudy 30 - - - -
26/05:30pm 12.7 W 4 6 1016.4 - 0.0 - - 10 - - - -
26/05:00pm 13.6 WNW 4 5 1016.1 - 0.0 - - 10 - - - -
26/04:30pm 13.5 WNW 4 6 1016.4 - 0.0 - - 10 - - - -
26/04:00pm 14.0 W 4 5 1016.3 - 0.0 - - 10 - - - -
26/03:30pm 14.7 NW 7 9 1017.2 - 0.0 - - 10 - - - -
26/03:00pm 15.3 NW 7 8 1016.9 F 0.0 Fine Mostly cloudy 30 - - - -
26/02:30pm 14.9 NW 8 14 1017.4 - 0.0 - - 10 - - - -
26/02:00pm 15.4 NW 6 7 1017.3 - 0.0 - - 10 - - - -
26/01:30pm 14.7 NW 6 9 1017.8 - 0.0 - - 10 - - - -
26/01:00pm 15.1 NW 7 9 1018.1 - 0.0 - - 10 - - - -
26/12:30pm 15.4 NW 7 9 1018.2 - 0.0 - - 10 - - - -
26/12:00pm 13.9 NW 7 10 1018.9 F 0.0 Fine Mostly cloudy 30 - - - -
26/11:30am 13.9 NW 8 11 1019.6 - 0.0 - - 10 - - - -
26/11:00am 13.3 NW 8 11 1020.2 - 0.0 - - 10 - - - -
26/10:30am 12.0 NW 9 14 1020.7 - 0.0 - - 10 - - - -
26/10:00am 10.7 WNW 10 13 1021.0 - 0.0 - - 10 - - - -
26/09:30am 9.5 NW 11 14 1020.8 - 0.0 - Partly cloudy 10 - - - -
26/09:00am 8.0 NW 8 12 1020.9 F 0.0 Fine Mostly cloudy 30 - - - -
26/08:30am 7.7 NW 8 10 1020.8 - 0.0 - Mostly clear 10 - - - -
26/08:00am 7.0 NW 9 12 1021.1 - 0.0 - Mostly clear 10 - - - -
26/07:30am 6.7 NW 9 12 1020.9 - 0.0 - Mostly clear 10 - - - -
26/07:00am 6.6 WNW 11 14 1020.9 - 0.0 - Cloudy 10 - - - -
26/06:30am 6.6 WNW 11 15 1020.6 - 0.0 - Mostly clear 10 - - - -
26/06:00am 6.4 WNW 11 14 1020.2 R 0.0 Fine Mostly cloudy 25 - - - -
26/05:30am 6.0 WNW 12 15 1020.4 - 0.0 - Mostly clear 10 - - - -
26/05:00am 5.8 WNW 12 16 1020.1 - 0.0 - Partly cloudy 10 - - - -
26/04:30am 5.6 NW 8 10 1019.8 - 0.0 - - 10 - - - -
26/04:00am 6.2 W 11 14 1019.4 - 0.0 - - 10 - - - -
26/03:30am 6.8 W 13 17 1019.3 - 0.0 - - 10 - - - -
26/03:00am 7.1 W 16 20 1019.6 F 0.0 Fine Mostly clear 25 - - - -
26/02:30am 7.3 W 17 20 1019.5 - 0.0 - - 10 - - - -
26/02:00am 7.2 W 16 19 1020.0 - 0.0 - Partly cloudy 10 - - - -
26/01:30am 7.5 W 13 17 1020.3 - 0.0 - Cloudy 10 - - - -
26/01:00am 7.7 W 12 16 1020.6 - 0.0 - Cloudy 10 - - - -
26/12:30am 8.4 W 15 18 1020.7 - 0.0 - Cloudy 10 - - - -
26/12:00am 8.2 WSW 16 20 1020.6 R 0.0 Fine Mostly cloudy 25 - - - -
 
Date/Time
EST
Temp
°C
Wind Pressure Rain since
9am
mm
Weather Cloud Vis
km
Sea
Height
m
Swell
Dir  Spd
kts
Gust
kts
hPa Trend Height
m
Period
s
Dir
25/11:30pm 8.2 WSW 15 18 1020.6 - 0.0 - Partly cloudy 10 - - - -
25/11:00pm 8.6 W 15 18 1020.5 - 0.0 - - 10 - - - -
25/10:30pm 8.2 WSW 15 18 1020.4 - 0.0 - Partly cloudy 10 - - - -
25/10:00pm 8.3 W 14 17 1020.4 - 0.0 - - 10 - - - -
25/09:30pm 9.0 WSW 16 20 1020.3 - 0.0 - - 10 - - - -
25/09:00pm 9.0 WSW 15 19 1020.1 F 0.0 Fine Mostly clear 30 - - - -
25/08:30pm 9.3 WSW 14 18 1020.2 - 0.0 - - 10 - - - -
25/08:00pm 9.9 W 15 21 1020.2 - 0.0 - - 10 - - - -
25/07:30pm 10.2 W 15 19 1020.0 - 0.0 - - 10 - - - -
25/07:00pm 10.4 W 14 18 1020.0 - 0.0 - - 10 - - - -
25/06:30pm 10.6 W 9 11 1019.8 - 0.0 - - 10 - - - -
25/06:00pm 11.0 WSW 9 10 1019.5 R 0.0 Fine Mostly clear 30 - - - -
25/05:30pm 11.4 WSW 9 12 1019.3 - 0.0 - - 10 - - - -
25/05:00pm 11.9 SW 8 11 1018.9 - 0.0 - - 10 - - - -
25/04:30pm 12.8 SSW 11 13 1018.7 - 0.0 - - 10 - - - -
25/04:00pm 13.1 SSW 13 16 1018.4 - 0.0 - - 10 - - - -
25/03:30pm 13.3 SSW 13 17 1018.3 - 0.0 - - 10 - - - -
25/03:00pm 13.4 SSW 15 17 1018.1 R 0.0 Fine Mostly clear 30 - - - -
25/02:30pm 13.6 SSW 15 19 1018.0 - 0.0 - - 10 - - - -
25/02:00pm 13.2 SSW 17 20 1017.8 - 0.0 - - 10 - - - -
25/01:30pm 13.3 SSW 16 25 1017.8 - 0.0 - - 10 - - - -
25/01:00pm 13.2 SSW 16 21 1017.9 - 0.0 - - 10 - - - -
25/12:30pm 13.1 SW 14 20 1018.0 - 0.0 - - 10 - - - -
25/12:00pm 12.5 SW 13 19 1018.1 R 0.0 Fine Mostly clear 30 - - - -
25/11:30am 12.3 SW 15 19 1018.4 - 0.0 - - 10 - - - -
25/11:00am 11.8 WSW 13 18 1018.5 - 0.0 - - 10 - - - -
25/10:30am 11.3 W 14 20 1018.7 - 0.0 - - 10 - - - -
25/10:00am 10.3 WSW 18 22 1018.6 - 0.0 - - 10 - - - -
25/09:30am 10.0 W 17 22 1018.6 - 0.0 - - 10 - - - -
25/09:00am 8.8 W 19 25 1018.2 R 0.0 Fine Mostly clear 30 - - - -
25/08:30am 7.9 W 18 23 1017.8 - 0.0 - - 10 - - - -
25/08:00am 7.5 WSW 16 20 1017.6 - 0.0 - - 10 - - - -
25/07:30am 7.3 W 13 19 1017.5 - 0.0 - - 10 - - - -
25/07:00am 7.7 W 11 14 1017.0 - 0.0 - - 10 - - - -
25/06:30am 7.0 WSW 15 18 1016.5 - 0.0 - - 10 - - - -
25/06:00am 6.9 W 18 22 1015.9 R 0.0 Fine Mostly clear 30 - - - -
25/05:30am 7.0 W 13 18 1015.6 - 0.0 - - 10 - - - -
25/05:00am 7.2 W 11 16 1015.3 - 0.0 - - 10 - - - -
25/04:30am 7.6 WSW 13 16 1015.0 - 0.0 - - 10 - - - -
25/04:00am 7.9 W 15 18 1014.3 - 0.0 - - 10 - - - -
25/03:30am 7.9 W 16 20 1013.5 - 0.0 - - 10 - - - -
25/03:00am 7.9 W 15 19 1013.6 R 0.0 Fine Clear 30 - - - -
25/02:30am 8.2 W 10 15 1013.4 - 0.0 - - 10 - - - -
25/02:00am 8.3 W 15 21 1013.1 - 0.0 - - 10 - - - -
25/01:30am 8.5 W 13 19 1012.7 - 0.0 - - 10 - - - -
25/01:00am 8.7 W 17 22 1012.2 - 0.0 - - 10 - - - -
25/12:30am 9.0 WSW 18 22 1012.4 - 0.0 - - 10 - - - -
25/12:22am 9.0 WSW 17 27 1012.3 - 0.0 - - 10 - - - -
25/12:00am 9.3 W 19 24 1011.8 R 0.0 Fine Clear 30 - - - -
 
Date/Time
EST
Temp
°C
Wind Pressure Rain since
9am
mm
Weather Cloud Vis
km
Sea
Height
m
Swell
Dir  Spd
kts
Gust
kts
hPa Trend Height
m
Period
s
Dir
24/11:30pm 9.4 W 19 27 1011.8 - 0.0 - - 10 - - - -
24/11:00pm 9.5 W 23 31 1011.2 - 0.0 - - 10 - - - -
24/10:57pm 9.4 W 21 31 1011.2 - 0.0 - - 10 - - - -
24/10:30pm 9.6 W 19 24 1010.9 - 0.0 - - 10 - - - -
24/10:00pm 9.6 W 19 24 1010.8 - 0.0 - - 10 - - - -
24/09:30pm 9.5 W 23 31 1010.5 - 0.0 - - 10 - - - -
24/09:00pm 9.7 W 26 35 1009.8 R 0.0 Fine Mostly clear 30 - - - -
24/08:30pm 9.8 W 25 34 1009.2 - 0.0 - - 10 - - - -
24/08:00pm 9.9 W 22 30 1008.6 - 0.0 - - 10 - - - -
24/07:30pm 10.1 WNW 21 29 1008.0 - 0.0 - - 10 - - - -
24/07:14pm 10.3 W 16 26 1008.3 - 0.0 - Mostly clear 10 - - - -
24/07:00pm 10.1 W 17 21 1007.9 - 0.0 - Mostly clear 10 - - - -
24/06:30pm 10.2 WSW 21 27 1007.9 - 0.0 - Mostly clear 10 - - - -
24/06:12pm 10.6 W 15 25 1007.6 - 0.0 - Partly cloudy 10 - - - -
24/06:00pm 11.2 WNW 12 17 1007.6 R 0.0 Fine Mostly cloudy 30 - - - -
24/05:30pm 11.0 WNW 15 19 1007.1 - 0.0 - Mostly clear 10 - - - -
24/05:00pm 11.2 WNW 21 28 1006.1 - 0.0 - Mostly clear 10 - - - -
24/04:30pm 12.4 NW 18 26 1005.7 - 0.0 - - 10 - - - -
24/04:00pm 13.3 WNW 23 38 1004.9 - 0.0 - - 10 - - - -
24/03:40pm 13.7 WNW 21 32 1004.2 - 0.0 - - 10 - - - -
24/03:30pm 14.1 WNW 22 30 1003.9 - 0.0 - - 10 - - - -
24/03:00pm 14.5 WNW 30 40 1003.4 R 0.0 Fine Partly cloudy 30 - - - -
24/02:39pm 15.6 W 23 41 1002.8 - 0.0 - - 10 - - - -
24/02:30pm 16.3 W 17 26 1002.9 - 0.0 - - 10 - - - -
24/02:17pm 16.2 W 19 29 1002.8 - 0.0 - Partly cloudy 10 - - - -
24/02:00pm 16.4 WNW 25 33 1002.8 - 0.0 - Partly cloudy 10 - - - -

Other Formats:

Comma delimited format used in spreadsheet applications
http://www.bom.gov.au/fwo/IDN60701/IDN60701.94767.axf

JavaScript Object Notation format (JSON) in row-major order
http://www.bom.gov.au/fwo/IDN60701/IDN60701.94767.json